sensor_id;sensor_type;location;lat;lon;timestamp;P1;durP1;ratioP1;P2;durP2;ratioP2
38911;SDS011;28444;48.056;14.408;2023-10-31T00:00:49;1.90;;;0.75;;
38911;SDS011;28444;48.056;14.408;2023-10-31T00:03:17;3.33;;;1.00;;
38911;SDS011;28444;48.056;14.408;2023-10-31T00:05:43;3.97;;;1.60;;
38911;SDS011;28444;48.056;14.408;2023-10-31T00:08:10;6.40;;;1.65;;
38911;SDS011;28444;48.056;14.408;2023-10-31T00:10:37;4.70;;;2.17;;
38911;SDS011;28444;48.056;14.408;2023-10-31T00:13:03;9.30;;;2.83;;
38911;SDS011;28444;48.056;14.408;2023-10-31T00:15:30;7.30;;;3.35;;
38911;SDS011;28444;48.056;14.408;2023-10-31T00:17:57;3.42;;;2.20;;
38911;SDS011;28444;48.056;14.408;2023-10-31T00:20:23;6.18;;;2.92;;
38911;SDS011;28444;48.056;14.408;2023-10-31T00:22:50;6.30;;;2.53;;
38911;SDS011;28444;48.056;14.408;2023-10-31T00:25:17;4.43;;;2.80;;
38911;SDS011;28444;48.056;14.408;2023-10-31T00:27:43;6.88;;;3.35;;
38911;SDS011;28444;48.056;14.408;2023-10-31T00:30:10;9.27;;;4.22;;
38911;SDS011;28444;48.056;14.408;2023-10-31T00:32:37;8.88;;;4.07;;
38911;SDS011;28444;48.056;14.408;2023-10-31T00:35:04;4.78;;;4.00;;
38911;SDS011;28444;48.056;14.408;2023-10-31T00:37:31;9.45;;;5.43;;
38911;SDS011;28444;48.056;14.408;2023-10-31T00:39:57;8.10;;;5.22;;
38911;SDS011;28444;48.056;14.408;2023-10-31T00:42:24;9.80;;;5.03;;
38911;SDS011;28444;48.056;14.408;2023-10-31T00:44:51;5.13;;;4.20;;
38911;SDS011;28444;48.056;14.408;2023-10-31T00:47:17;8.18;;;4.65;;
38911;SDS011;28444;48.056;14.408;2023-10-31T00:49:44;6.68;;;4.40;;
38911;SDS011;28444;48.056;14.408;2023-10-31T00:52:10;8.63;;;3.92;;
38911;SDS011;28444;48.056;14.408;2023-10-31T00:54:37;8.48;;;4.32;;
38911;SDS011;28444;48.056;14.408;2023-10-31T00:57:04;7.47;;;3.78;;
38911;SDS011;28444;48.056;14.408;2023-10-31T00:59:30;6.22;;;3.95;;
38911;SDS011;28444;48.056;14.408;2023-10-31T01:01:57;5.38;;;4.05;;
38911;SDS011;28444;48.056;14.408;2023-10-31T01:04:23;5.15;;;3.83;;
38911;SDS011;28444;48.056;14.408;2023-10-31T01:06:52;5.43;;;3.70;;
38911;SDS011;28444;48.056;14.408;2023-10-31T01:09:18;5.45;;;4.63;;
38911;SDS011;28444;48.056;14.408;2023-10-31T01:11:45;5.40;;;3.70;;
38911;SDS011;28444;48.056;14.408;2023-10-31T01:14:11;6.80;;;3.42;;
38911;SDS011;28444;48.056;14.408;2023-10-31T01:16:39;6.30;;;3.42;;
38911;SDS011;28444;48.056;14.408;2023-10-31T01:19:06;7.45;;;3.42;;
38911;SDS011;28444;48.056;14.408;2023-10-31T01:21:33;4.38;;;3.75;;
38911;SDS011;28444;48.056;14.408;2023-10-31T01:24:00;7.28;;;4.50;;
38911;SDS011;28444;48.056;14.408;2023-10-31T01:26:26;7.28;;;4.28;;
38911;SDS011;28444;48.056;14.408;2023-10-31T01:28:53;5.32;;;4.50;;
38911;SDS011;28444;48.056;14.408;2023-10-31T01:31:20;8.73;;;4.78;;
38911;SDS011;28444;48.056;14.408;2023-10-31T01:33:47;6.78;;;4.85;;
38911;SDS011;28444;48.056;14.408;2023-10-31T01:36:13;4.55;;;4.00;;
38911;SDS011;28444;48.056;14.408;2023-10-31T01:38:40;6.60;;;4.50;;
38911;SDS011;28444;48.056;14.408;2023-10-31T01:41:07;8.48;;;5.55;;
38911;SDS011;28444;48.056;14.408;2023-10-31T01:43:37;8.10;;;5.38;;
38911;SDS011;28444;48.056;14.408;2023-10-31T01:46:04;14.32;;;4.63;;
38911;SDS011;28444;48.056;14.408;2023-10-31T01:48:32;7.63;;;5.88;;
38911;SDS011;28444;48.056;14.408;2023-10-31T01:51:00;9.27;;;6.45;;
38911;SDS011;28444;48.056;14.408;2023-10-31T01:53:29;7.88;;;6.00;;
38911;SDS011;28444;48.056;14.408;2023-10-31T01:55:59;7.95;;;6.47;;
38911;SDS011;28444;48.056;14.408;2023-10-31T01:58:31;9.55;;;6.93;;
38911;SDS011;28444;48.056;14.408;2023-10-31T02:01:00;15.15;;;8.38;;
38911;SDS011;28444;48.056;14.408;2023-10-31T02:03:27;9.05;;;7.38;;
38911;SDS011;28444;48.056;14.408;2023-10-31T02:05:54;11.05;;;7.75;;
38911;SDS011;28444;48.056;14.408;2023-10-31T02:08:21;10.63;;;7.57;;
38911;SDS011;28444;48.056;14.408;2023-10-31T02:10:48;8.32;;;7.18;;
38911;SDS011;28444;48.056;14.408;2023-10-31T02:13:15;8.02;;;6.47;;
38911;SDS011;28444;48.056;14.408;2023-10-31T02:15:44;11.85;;;6.97;;
38911;SDS011;28444;48.056;14.408;2023-10-31T02:18:11;8.25;;;5.70;;
38911;SDS011;28444;48.056;14.408;2023-10-31T02:20:38;11.25;;;5.65;;
38911;SDS011;28444;48.056;14.408;2023-10-31T02:23:06;6.15;;;4.45;;
38911;SDS011;28444;48.056;14.408;2023-10-31T02:25:32;7.22;;;4.88;;
38911;SDS011;28444;48.056;14.408;2023-10-31T02:27:59;5.95;;;4.07;;
38911;SDS011;28444;48.056;14.408;2023-10-31T02:30:26;4.13;;;3.55;;
38911;SDS011;28444;48.056;14.408;2023-10-31T02:32:53;7.05;;;3.97;;
38911;SDS011;28444;48.056;14.408;2023-10-31T02:35:20;3.90;;;2.97;;
38911;SDS011;28444;48.056;14.408;2023-10-31T02:37:47;3.90;;;3.50;;
38911;SDS011;28444;48.056;14.408;2023-10-31T02:40:15;4.60;;;2.85;;
38911;SDS011;28444;48.056;14.408;2023-10-31T02:42:41;5.40;;;2.28;;
38911;SDS011;28444;48.056;14.408;2023-10-31T02:45:08;2.72;;;2.47;;
38911;SDS011;28444;48.056;14.408;2023-10-31T02:47:35;2.40;;;1.63;;
38911;SDS011;28444;48.056;14.408;2023-10-31T02:50:02;2.40;;;2.00;;
38911;SDS011;28444;48.056;14.408;2023-10-31T02:52:28;1.95;;;1.77;;
38911;SDS011;28444;48.056;14.408;2023-10-31T02:54:55;2.13;;;1.45;;
38911;SDS011;28444;48.056;14.408;2023-10-31T02:57:21;1.25;;;1.15;;
38911;SDS011;28444;48.056;14.408;2023-10-31T02:59:48;1.98;;;1.35;;
38911;SDS011;28444;48.056;14.408;2023-10-31T03:02:15;2.47;;;1.60;;
38911;SDS011;28444;48.056;14.408;2023-10-31T03:04:42;2.53;;;1.50;;
38911;SDS011;28444;48.056;14.408;2023-10-31T03:07:08;5.53;;;1.48;;
38911;SDS011;28444;48.056;14.408;2023-10-31T03:09:35;1.50;;;1.40;;
38911;SDS011;28444;48.056;14.408;2023-10-31T03:12:01;2.85;;;1.65;;
38911;SDS011;28444;48.056;14.408;2023-10-31T03:14:28;1.55;;;1.42;;
38911;SDS011;28444;48.056;14.408;2023-10-31T03:16:55;2.05;;;1.52;;
38911;SDS011;28444;48.056;14.408;2023-10-31T03:19:22;1.55;;;1.42;;
38911;SDS011;28444;48.056;14.408;2023-10-31T03:21:48;2.88;;;1.60;;
38911;SDS011;28444;48.056;14.408;2023-10-31T03:24:15;1.77;;;1.30;;
38911;SDS011;28444;48.056;14.408;2023-10-31T03:26:41;1.67;;;1.27;;
38911;SDS011;28444;48.056;14.408;2023-10-31T03:29:08;1.48;;;1.38;;
38911;SDS011;28444;48.056;14.408;2023-10-31T03:31:35;5.53;;;1.67;;
38911;SDS011;28444;48.056;14.408;2023-10-31T03:34:01;2.00;;;1.63;;
38911;SDS011;28444;48.056;14.408;2023-10-31T03:36:28;1.08;;;0.88;;
38911;SDS011;28444;48.056;14.408;2023-10-31T03:38:55;1.65;;;0.77;;
38911;SDS011;28444;48.056;14.408;2023-10-31T03:41:21;0.60;;;0.60;;
38911;SDS011;28444;48.056;14.408;2023-10-31T03:43:48;2.13;;;0.70;;
38911;SDS011;28444;48.056;14.408;2023-10-31T03:46:15;1.10;;;0.50;;
38911;SDS011;28444;48.056;14.408;2023-10-31T03:48:41;0.75;;;0.52;;
38911;SDS011;28444;48.056;14.408;2023-10-31T03:51:08;0.60;;;0.60;;
38911;SDS011;28444;48.056;14.408;2023-10-31T03:53:35;1.27;;;0.60;;
38911;SDS011;28444;48.056;14.408;2023-10-31T03:56:01;0.75;;;0.60;;
38911;SDS011;28444;48.056;14.408;2023-10-31T03:58:28;1.15;;;0.55;;
38911;SDS011;28444;48.056;14.408;2023-10-31T04:00:55;0.43;;;0.40;;
38911;SDS011;28444;48.056;14.408;2023-10-31T04:03:22;1.00;;;0.43;;
38911;SDS011;28444;48.056;14.408;2023-10-31T04:05:48;0.35;;;0.35;;
38911;SDS011;28444;48.056;14.408;2023-10-31T04:08:15;1.35;;;0.50;;
38911;SDS011;28444;48.056;14.408;2023-10-31T04:10:42;0.63;;;0.50;;
38911;SDS011;28444;48.056;14.408;2023-10-31T04:13:10;0.75;;;0.75;;
38911;SDS011;28444;48.056;14.408;2023-10-31T04:15:37;1.85;;;0.90;;
38911;SDS011;28444;48.056;14.408;2023-10-31T04:18:04;2.15;;;1.10;;
38911;SDS011;28444;48.056;14.408;2023-10-31T04:20:32;1.75;;;1.20;;
38911;SDS011;28444;48.056;14.408;2023-10-31T04:23:01;1.83;;;1.10;;
38911;SDS011;28444;48.056;14.408;2023-10-31T04:25:29;0.52;;;0.52;;
38911;SDS011;28444;48.056;14.408;2023-10-31T04:27:55;0.52;;;0.52;;
38911;SDS011;28444;48.056;14.408;2023-10-31T04:30:22;0.47;;;0.47;;
38911;SDS011;28444;48.056;14.408;2023-10-31T04:32:49;0.50;;;0.30;;
38911;SDS011;28444;48.056;14.408;2023-10-31T04:35:15;0.43;;;0.43;;
38911;SDS011;28444;48.056;14.408;2023-10-31T04:37:42;0.40;;;0.40;;
38911;SDS011;28444;48.056;14.408;2023-10-31T04:40:09;0.30;;;0.30;;
38911;SDS011;28444;48.056;14.408;2023-10-31T04:42:38;3.30;;;0.90;;
38911;SDS011;28444;48.056;14.408;2023-10-31T04:45:06;0.50;;;0.40;;
38911;SDS011;28444;48.056;14.408;2023-10-31T04:47:33;0.30;;;0.30;;
38911;SDS011;28444;48.056;14.408;2023-10-31T04:50:00;1.13;;;0.45;;
38911;SDS011;28444;48.056;14.408;2023-10-31T04:52:27;0.40;;;0.40;;
38911;SDS011;28444;48.056;14.408;2023-10-31T04:54:54;2.30;;;0.40;;
38911;SDS011;28444;48.056;14.408;2023-10-31T04:57:20;0.20;;;0.20;;
38911;SDS011;28444;48.056;14.408;2023-10-31T04:59:47;0.30;;;0.30;;
38911;SDS011;28444;48.056;14.408;2023-10-31T05:02:13;0.30;;;0.30;;
38911;SDS011;28444;48.056;14.408;2023-10-31T05:04:40;1.45;;;0.20;;
38911;SDS011;28444;48.056;14.408;2023-10-31T05:07:07;2.30;;;0.32;;
38911;SDS011;28444;48.056;14.408;2023-10-31T05:09:34;0.75;;;0.55;;
38911;SDS011;28444;48.056;14.408;2023-10-31T05:12:01;0.30;;;0.30;;
38911;SDS011;28444;48.056;14.408;2023-10-31T05:14:29;1.17;;;0.50;;
38911;SDS011;28444;48.056;14.408;2023-10-31T05:16:55;0.40;;;0.30;;
38911;SDS011;28444;48.056;14.408;2023-10-31T05:19:22;0.20;;;0.20;;
38911;SDS011;28444;48.056;14.408;2023-10-31T05:21:49;0.40;;;0.40;;
38911;SDS011;28444;48.056;14.408;2023-10-31T05:24:15;0.30;;;0.30;;
38911;SDS011;28444;48.056;14.408;2023-10-31T05:26:42;1.35;;;0.60;;
38911;SDS011;28444;48.056;14.408;2023-10-31T05:29:11;0.40;;;0.40;;
38911;SDS011;28444;48.056;14.408;2023-10-31T05:31:38;1.13;;;0.40;;
38911;SDS011;28444;48.056;14.408;2023-10-31T05:34:05;0.43;;;0.32;;
38911;SDS011;28444;48.056;14.408;2023-10-31T05:36:33;0.47;;;0.47;;
38911;SDS011;28444;48.056;14.408;2023-10-31T05:39:00;0.45;;;0.43;;
38911;SDS011;28444;48.056;14.408;2023-10-31T05:41:27;0.22;;;0.22;;
38911;SDS011;28444;48.056;14.408;2023-10-31T05:43:53;0.98;;;0.35;;
38911;SDS011;28444;48.056;14.408;2023-10-31T05:46:21;1.80;;;0.30;;
38911;SDS011;28444;48.056;14.408;2023-10-31T05:48:48;3.95;;;0.95;;
38911;SDS011;28444;48.056;14.408;2023-10-31T05:51:16;4.70;;;1.65;;
38911;SDS011;28444;48.056;14.408;2023-10-31T05:53:45;2.50;;;0.98;;
38911;SDS011;28444;48.056;14.408;2023-10-31T05:56:13;2.20;;;1.23;;
38911;SDS011;28444;48.056;14.408;2023-10-31T05:58:41;6.47;;;1.90;;
38911;SDS011;28444;48.056;14.408;2023-10-31T06:01:10;6.55;;;2.55;;
38911;SDS011;28444;48.056;14.408;2023-10-31T06:03:36;4.82;;;1.77;;
38911;SDS011;28444;48.056;14.408;2023-10-31T06:06:03;3.47;;;1.13;;
38911;SDS011;28444;48.056;14.408;2023-10-31T06:08:32;0.77;;;0.68;;
38911;SDS011;28444;48.056;14.408;2023-10-31T06:10:59;1.15;;;0.68;;
38911;SDS011;28444;48.056;14.408;2023-10-31T06:13:26;1.00;;;0.60;;
38911;SDS011;28444;48.056;14.408;2023-10-31T06:15:54;1.58;;;0.95;;
38911;SDS011;28444;48.056;14.408;2023-10-31T06:18:27;0.90;;;0.40;;
38911;SDS011;28444;48.056;14.408;2023-10-31T06:20:54;0.43;;;0.40;;
38911;SDS011;28444;48.056;14.408;2023-10-31T06:23:21;0.30;;;0.30;;
38911;SDS011;28444;48.056;14.408;2023-10-31T06:25:47;0.30;;;0.22;;
38911;SDS011;28444;48.056;14.408;2023-10-31T06:28:14;0.30;;;0.22;;
38911;SDS011;28444;48.056;14.408;2023-10-31T06:30:41;0.30;;;0.28;;
38911;SDS011;28444;48.056;14.408;2023-10-31T06:33:08;0.30;;;0.30;;
38911;SDS011;28444;48.056;14.408;2023-10-31T06:35:36;1.30;;;0.40;;
38911;SDS011;28444;48.056;14.408;2023-10-31T06:38:02;0.30;;;0.30;;
38911;SDS011;28444;48.056;14.408;2023-10-31T06:40:29;0.32;;;0.32;;
38911;SDS011;28444;48.056;14.408;2023-10-31T06:42:56;0.63;;;0.32;;
38911;SDS011;28444;48.056;14.408;2023-10-31T06:45:22;0.35;;;0.35;;
38911;SDS011;28444;48.056;14.408;2023-10-31T06:47:49;0.68;;;0.40;;
38911;SDS011;28444;48.056;14.408;2023-10-31T06:50:16;3.85;;;0.50;;
38911;SDS011;28444;48.056;14.408;2023-10-31T06:52:46;2.35;;;0.63;;
38911;SDS011;28444;48.056;14.408;2023-10-31T06:55:12;0.80;;;0.38;;
38911;SDS011;28444;48.056;14.408;2023-10-31T06:57:39;0.28;;;0.28;;
38911;SDS011;28444;48.056;14.408;2023-10-31T07:00:06;1.15;;;0.57;;
38911;SDS011;28444;48.056;14.408;2023-10-31T07:02:36;0.60;;;0.40;;
38911;SDS011;28444;48.056;14.408;2023-10-31T07:05:03;0.40;;;0.40;;
38911;SDS011;28444;48.056;14.408;2023-10-31T07:07:30;0.60;;;0.50;;
38911;SDS011;28444;48.056;14.408;2023-10-31T07:09:56;1.17;;;0.55;;
38911;SDS011;28444;48.056;14.408;2023-10-31T07:12:23;4.80;;;0.85;;
38911;SDS011;28444;48.056;14.408;2023-10-31T07:14:50;2.58;;;0.93;;
38911;SDS011;28444;48.056;14.408;2023-10-31T07:17:17;2.80;;;0.60;;
38911;SDS011;28444;48.056;14.408;2023-10-31T07:19:44;1.48;;;0.93;;
38911;SDS011;28444;48.056;14.408;2023-10-31T07:22:11;0.40;;;0.40;;
38911;SDS011;28444;48.056;14.408;2023-10-31T07:24:37;0.77;;;0.50;;
38911;SDS011;28444;48.056;14.408;2023-10-31T07:27:04;0.70;;;0.40;;
38911;SDS011;28444;48.056;14.408;2023-10-31T07:29:31;2.70;;;1.48;;
38911;SDS011;28444;48.056;14.408;2023-10-31T07:31:57;0.50;;;0.45;;
38911;SDS011;28444;48.056;14.408;2023-10-31T07:34:24;1.20;;;0.60;;
38911;SDS011;28444;48.056;14.408;2023-10-31T07:36:51;2.00;;;0.75;;
38911;SDS011;28444;48.056;14.408;2023-10-31T07:39:17;1.38;;;0.40;;
38911;SDS011;28444;48.056;14.408;2023-10-31T07:41:44;1.55;;;0.55;;
38911;SDS011;28444;48.056;14.408;2023-10-31T07:44:11;0.85;;;0.32;;
38911;SDS011;28444;48.056;14.408;2023-10-31T07:46:38;0.55;;;0.50;;
38911;SDS011;28444;48.056;14.408;2023-10-31T07:49:04;0.43;;;0.43;;
38911;SDS011;28444;48.056;14.408;2023-10-31T07:51:31;1.95;;;0.68;;
38911;SDS011;28444;48.056;14.408;2023-10-31T07:53:58;1.02;;;0.50;;
38911;SDS011;28444;48.056;14.408;2023-10-31T07:56:25;0.63;;;0.40;;
38911;SDS011;28444;48.056;14.408;2023-10-31T07:58:52;1.40;;;0.50;;
38911;SDS011;28444;48.056;14.408;2023-10-31T08:01:19;0.95;;;0.50;;
38911;SDS011;28444;48.056;14.408;2023-10-31T08:03:46;2.17;;;0.47;;
38911;SDS011;28444;48.056;14.408;2023-10-31T08:06:14;1.27;;;0.60;;
38911;SDS011;28444;48.056;14.408;2023-10-31T08:08:41;0.50;;;0.47;;
38911;SDS011;28444;48.056;14.408;2023-10-31T08:11:07;2.28;;;0.63;;
38911;SDS011;28444;48.056;14.408;2023-10-31T08:13:36;0.75;;;0.52;;
38911;SDS011;28444;48.056;14.408;2023-10-31T08:16:04;1.85;;;0.70;;
38911;SDS011;28444;48.056;14.408;2023-10-31T08:18:32;2.85;;;0.50;;
38911;SDS011;28444;48.056;14.408;2023-10-31T08:20:59;2.60;;;0.85;;
38911;SDS011;28444;48.056;14.408;2023-10-31T08:23:25;1.63;;;0.68;;
38911;SDS011;28444;48.056;14.408;2023-10-31T08:25:53;2.88;;;0.60;;
38911;SDS011;28444;48.056;14.408;2023-10-31T08:28:20;1.00;;;0.50;;
38911;SDS011;28444;48.056;14.408;2023-10-31T08:30:46;4.38;;;0.80;;
38911;SDS011;28444;48.056;14.408;2023-10-31T08:33:14;2.70;;;1.00;;
38911;SDS011;28444;48.056;14.408;2023-10-31T08:35:43;2.95;;;1.27;;
38911;SDS011;28444;48.056;14.408;2023-10-31T08:38:12;2.33;;;1.08;;
38911;SDS011;28444;48.056;14.408;2023-10-31T08:40:52;3.33;;;0.80;;
38911;SDS011;28444;48.056;14.408;2023-10-31T08:43:19;2.05;;;1.02;;
38911;SDS011;28444;48.056;14.408;2023-10-31T08:45:46;1.90;;;1.00;;
38911;SDS011;28444;48.056;14.408;2023-10-31T08:48:13;2.78;;;1.15;;
38911;SDS011;28444;48.056;14.408;2023-10-31T08:50:42;1.60;;;1.08;;
38911;SDS011;28444;48.056;14.408;2023-10-31T08:53:09;0.82;;;0.80;;
38911;SDS011;28444;48.056;14.408;2023-10-31T08:55:36;2.00;;;0.95;;
38911;SDS011;28444;48.056;14.408;2023-10-31T08:58:03;3.42;;;1.15;;
38911;SDS011;28444;48.056;14.408;2023-10-31T09:00:31;2.95;;;1.02;;
38911;SDS011;28444;48.056;14.408;2023-10-31T09:02:58;2.40;;;1.25;;
38911;SDS011;28444;48.056;14.408;2023-10-31T09:05:25;2.13;;;0.90;;
38911;SDS011;28444;48.056;14.408;2023-10-31T09:07:54;1.73;;;0.77;;
38911;SDS011;28444;48.056;14.408;2023-10-31T09:10:23;2.97;;;0.90;;
38911;SDS011;28444;48.056;14.408;2023-10-31T09:12:50;1.92;;;0.80;;
38911;SDS011;28444;48.056;14.408;2023-10-31T09:15:18;2.40;;;1.00;;
38911;SDS011;28444;48.056;14.408;2023-10-31T09:17:48;1.52;;;0.77;;
38911;SDS011;28444;48.056;14.408;2023-10-31T09:20:16;4.90;;;1.48;;
38911;SDS011;28444;48.056;14.408;2023-10-31T09:22:43;1.27;;;0.75;;
38911;SDS011;28444;48.056;14.408;2023-10-31T09:25:11;1.58;;;1.02;;
38911;SDS011;28444;48.056;14.408;2023-10-31T09:27:40;1.35;;;0.88;;
38911;SDS011;28444;48.056;14.408;2023-10-31T09:30:08;2.70;;;0.88;;
38911;SDS011;28444;48.056;14.408;2023-10-31T09:32:36;1.60;;;0.80;;
38911;SDS011;28444;48.056;14.408;2023-10-31T09:35:04;3.33;;;0.73;;
38911;SDS011;28444;48.056;14.408;2023-10-31T09:37:32;1.77;;;0.80;;
38911;SDS011;28444;48.056;14.408;2023-10-31T09:39:58;0.65;;;0.65;;
38911;SDS011;28444;48.056;14.408;2023-10-31T09:42:25;0.40;;;0.40;;
38911;SDS011;28444;48.056;14.408;2023-10-31T09:44:52;3.60;;;0.60;;
38911;SDS011;28444;48.056;14.408;2023-10-31T09:47:19;0.75;;;0.50;;
38911;SDS011;28444;48.056;14.408;2023-10-31T09:49:47;1.77;;;0.70;;
38911;SDS011;28444;48.056;14.408;2023-10-31T09:52:14;1.35;;;0.68;;
38911;SDS011;28444;48.056;14.408;2023-10-31T09:54:40;2.60;;;0.60;;
38911;SDS011;28444;48.056;14.408;2023-10-31T09:57:12;1.67;;;0.70;;
38911;SDS011;28444;48.056;14.408;2023-10-31T09:59:39;0.77;;;0.60;;
38911;SDS011;28444;48.056;14.408;2023-10-31T10:02:06;0.40;;;0.40;;
38911;SDS011;28444;48.056;14.408;2023-10-31T10:04:33;1.30;;;0.68;;
38911;SDS011;28444;48.056;14.408;2023-10-31T10:07:03;3.53;;;0.63;;
38911;SDS011;28444;48.056;14.408;2023-10-31T10:09:30;1.25;;;0.55;;
38911;SDS011;28444;48.056;14.408;2023-10-31T10:11:59;1.90;;;1.00;;
38911;SDS011;28444;48.056;14.408;2023-10-31T10:14:26;1.45;;;0.80;;
38911;SDS011;28444;48.056;14.408;2023-10-31T10:16:55;2.38;;;1.55;;
38911;SDS011;28444;48.056;14.408;2023-10-31T10:19:22;0.60;;;0.60;;
38911;SDS011;28444;48.056;14.408;2023-10-31T10:21:52;4.93;;;1.63;;
38911;SDS011;28444;48.056;14.408;2023-10-31T10:24:20;3.85;;;1.33;;
38911;SDS011;28444;48.056;14.408;2023-10-31T10:26:48;1.83;;;1.10;;
38911;SDS011;28444;48.056;14.408;2023-10-31T10:29:16;1.20;;;0.77;;
38911;SDS011;28444;48.056;14.408;2023-10-31T10:31:45;1.50;;;0.50;;
38911;SDS011;28444;48.056;14.408;2023-10-31T10:34:14;1.52;;;0.82;;
38911;SDS011;28444;48.056;14.408;2023-10-31T10:36:46;0.60;;;0.60;;
38911;SDS011;28444;48.056;14.408;2023-10-31T10:39:19;0.90;;;0.50;;
38911;SDS011;28444;48.056;14.408;2023-10-31T10:41:54;1.77;;;0.80;;
38911;SDS011;28444;48.056;14.408;2023-10-31T10:44:32;2.72;;;0.98;;
38911;SDS011;28444;48.056;14.408;2023-10-31T10:47:05;1.17;;;0.52;;
38911;SDS011;28444;48.056;14.408;2023-10-31T10:49:34;0.88;;;0.60;;
38911;SDS011;28444;48.056;14.408;2023-10-31T10:54:37;1.23;;;0.57;;
38911;SDS011;28444;48.056;14.408;2023-10-31T10:57:14;0.55;;;0.50;;
38911;SDS011;28444;48.056;14.408;2023-10-31T10:59:48;3.67;;;1.77;;
38911;SDS011;28444;48.056;14.408;2023-10-31T11:02:18;2.20;;;0.60;;
38911;SDS011;28444;48.056;14.408;2023-10-31T11:04:45;1.95;;;0.80;;
38911;SDS011;28444;48.056;14.408;2023-10-31T11:07:13;5.00;;;0.90;;
38911;SDS011;28444;48.056;14.408;2023-10-31T11:09:43;2.58;;;1.02;;
38911;SDS011;28444;48.056;14.408;2023-10-31T11:12:12;1.27;;;1.17;;
38911;SDS011;28444;48.056;14.408;2023-10-31T11:14:41;2.85;;;1.08;;
38911;SDS011;28444;48.056;14.408;2023-10-31T11:17:11;2.70;;;1.02;;
38911;SDS011;28444;48.056;14.408;2023-10-31T11:19:50;1.48;;;0.88;;
38911;SDS011;28444;48.056;14.408;2023-10-31T11:22:19;2.65;;;0.77;;
38911;SDS011;28444;48.056;14.408;2023-10-31T11:24:48;2.00;;;0.82;;
38911;SDS011;28444;48.056;14.408;2023-10-31T11:27:16;3.08;;;2.17;;
38911;SDS011;28444;48.056;14.408;2023-10-31T11:29:44;3.50;;;1.00;;
38911;SDS011;28444;48.056;14.408;2023-10-31T11:32:10;4.15;;;1.27;;
38911;SDS011;28444;48.056;14.408;2023-10-31T11:34:38;1.30;;;1.15;;
38911;SDS011;28444;48.056;14.408;2023-10-31T11:46:03;6.30;;;5.68;;
38911;SDS011;28444;48.056;14.408;2023-10-31T11:48:14;9.63;;;7.07;;
38911;SDS011;28444;48.056;14.408;2023-10-31T11:50:41;19.17;;;13.43;;
38911;SDS011;28444;48.056;14.408;2023-10-31T11:53:17;14.20;;;9.02;;
38911;SDS011;28444;48.056;14.408;2023-10-31T11:55:45;21.45;;;12.90;;
38911;SDS011;28444;48.056;14.408;2023-10-31T11:58:22;3.50;;;2.53;;
38911;SDS011;28444;48.056;14.408;2023-10-31T12:00:58;11.93;;;3.90;;
38911;SDS011;28444;48.056;14.408;2023-10-31T12:03:35;26.15;;;10.93;;
38911;SDS011;28444;48.056;14.408;2023-10-31T12:06:07;22.17;;;9.63;;
38911;SDS011;28444;48.056;14.408;2023-10-31T12:08:39;14.98;;;7.47;;
38911;SDS011;28444;48.056;14.408;2023-10-31T12:13:39;36.22;;;16.38;;
38911;SDS011;28444;48.056;14.408;2023-10-31T12:16:10;46.80;;;21.38;;
38911;SDS011;28444;48.056;14.408;2023-10-31T12:18:39;17.52;;;7.72;;
38911;SDS011;28444;48.056;14.408;2023-10-31T12:21:05;76.65;;;40.67;;
38911;SDS011;28444;48.056;14.408;2023-10-31T12:23:34;20.45;;;8.63;;
38911;SDS011;28444;48.056;14.408;2023-10-31T12:26:01;65.70;;;32.28;;
38911;SDS011;28444;48.056;14.408;2023-10-31T12:28:28;56.15;;;26.17;;
38911;SDS011;28444;48.056;14.408;2023-10-31T12:30:55;65.32;;;34.13;;
38911;SDS011;28444;48.056;14.408;2023-10-31T12:33:24;126.22;;;71.75;;
38911;SDS011;28444;48.056;14.408;2023-10-31T12:35:55;43.13;;;30.02;;
38911;SDS011;28444;48.056;14.408;2023-10-31T12:38:24;92.72;;;65.88;;
38911;SDS011;28444;48.056;14.408;2023-10-31T12:40:52;45.40;;;30.75;;
38911;SDS011;28444;48.056;14.408;2023-10-31T12:43:19;111.40;;;72.90;;
38911;SDS011;28444;48.056;14.408;2023-10-31T12:45:46;14.15;;;11.55;;
38911;SDS011;28444;48.056;14.408;2023-10-31T12:48:13;17.58;;;16.15;;
38911;SDS011;28444;48.056;14.408;2023-10-31T12:50:39;6.05;;;5.22;;
38911;SDS011;28444;48.056;14.408;2023-10-31T12:53:09;6.18;;;5.68;;
38911;SDS011;28444;48.056;14.408;2023-10-31T12:55:38;2.78;;;2.58;;
38911;SDS011;28444;48.056;14.408;2023-10-31T12:58:06;2.60;;;2.40;;
38911;SDS011;28444;48.056;14.408;2023-10-31T13:00:36;7.95;;;7.07;;
38911;SDS011;28444;48.056;14.408;2023-10-31T13:05:32;6.00;;;5.25;;
38911;SDS011;28444;48.056;14.408;2023-10-31T13:08:14;7.25;;;6.65;;
38911;SDS011;28444;48.056;14.408;2023-10-31T13:10:42;3.38;;;2.30;;
38911;SDS011;28444;48.056;14.408;2023-10-31T13:13:10;3.78;;;3.40;;
38911;SDS011;28444;48.056;14.408;2023-10-31T13:15:39;2.00;;;1.65;;
38911;SDS011;28444;48.056;14.408;2023-10-31T13:18:06;2.80;;;1.80;;
38911;SDS011;28444;48.056;14.408;2023-10-31T13:20:33;4.88;;;3.20;;
38911;SDS011;28444;48.056;14.408;2023-10-31T13:23:00;6.03;;;2.85;;
38911;SDS011;28444;48.056;14.408;2023-10-31T13:25:29;7.10;;;6.05;;
38911;SDS011;28444;48.056;14.408;2023-10-31T13:27:58;3.47;;;2.90;;
38911;SDS011;28444;48.056;14.408;2023-10-31T13:30:24;6.07;;;2.05;;
38911;SDS011;28444;48.056;14.408;2023-10-31T13:32:52;4.78;;;3.30;;
38911;SDS011;28444;48.056;14.408;2023-10-31T13:35:19;1.95;;;1.25;;
38911;SDS011;28444;48.056;14.408;2023-10-31T13:37:46;5.70;;;2.33;;
38911;SDS011;28444;48.056;14.408;2023-10-31T13:40:13;5.20;;;2.60;;
38911;SDS011;28444;48.056;14.408;2023-10-31T13:42:40;7.07;;;5.68;;
38911;SDS011;28444;48.056;14.408;2023-10-31T13:45:07;3.55;;;2.85;;
38911;SDS011;28444;48.056;14.408;2023-10-31T13:47:34;4.22;;;2.83;;
38911;SDS011;28444;48.056;14.408;2023-10-31T13:50:01;6.22;;;3.33;;
38911;SDS011;28444;48.056;14.408;2023-10-31T13:52:28;4.32;;;2.65;;
38911;SDS011;28444;48.056;14.408;2023-10-31T13:54:55;3.42;;;3.10;;
38911;SDS011;28444;48.056;14.408;2023-10-31T13:57:22;3.90;;;2.75;;
38911;SDS011;28444;48.056;14.408;2023-10-31T13:59:49;3.75;;;2.08;;
38911;SDS011;28444;48.056;14.408;2023-10-31T14:02:16;2.92;;;1.90;;
38911;SDS011;28444;48.056;14.408;2023-10-31T14:04:44;2.67;;;1.70;;
38911;SDS011;28444;48.056;14.408;2023-10-31T14:07:12;7.55;;;1.33;;
38911;SDS011;28444;48.056;14.408;2023-10-31T14:09:46;4.07;;;1.63;;
38911;SDS011;28444;48.056;14.408;2023-10-31T14:12:14;6.15;;;1.63;;
38911;SDS011;28444;48.056;14.408;2023-10-31T14:14:41;8.35;;;2.65;;
38911;SDS011;28444;48.056;14.408;2023-10-31T14:17:07;4.50;;;1.48;;
38911;SDS011;28444;48.056;14.408;2023-10-31T14:19:34;2.15;;;1.35;;
38911;SDS011;28444;48.056;14.408;2023-10-31T14:22:01;4.32;;;1.67;;
38911;SDS011;28444;48.056;14.408;2023-10-31T14:24:28;3.42;;;1.10;;
38911;SDS011;28444;48.056;14.408;2023-10-31T14:26:55;1.20;;;1.00;;
38911;SDS011;28444;48.056;14.408;2023-10-31T14:29:21;3.38;;;1.00;;
38911;SDS011;28444;48.056;14.408;2023-10-31T14:31:49;1.38;;;1.10;;
38911;SDS011;28444;48.056;14.408;2023-10-31T14:34:15;3.15;;;1.08;;
38911;SDS011;28444;48.056;14.408;2023-10-31T14:36:42;2.28;;;1.00;;
38911;SDS011;28444;48.056;14.408;2023-10-31T14:39:09;10.95;;;1.63;;
38911;SDS011;28444;48.056;14.408;2023-10-31T14:41:36;2.45;;;0.85;;
38911;SDS011;28444;48.056;14.408;2023-10-31T14:44:03;2.25;;;0.80;;
38911;SDS011;28444;48.056;14.408;2023-10-31T14:46:30;1.60;;;0.45;;
38911;SDS011;28444;48.056;14.408;2023-10-31T14:48:58;5.55;;;0.98;;
38911;SDS011;28444;48.056;14.408;2023-10-31T14:51:25;2.50;;;1.08;;